sensor_id;sensor_type;location;lat;lon;timestamp;pressure;altitude;pressure_sealevel;temperature;humidity
62847;BME280;49477;35.676;139.586;2023-06-10T00:01:31;100711.52;;;29.29;42.60
62847;BME280;49477;35.676;139.586;2023-06-10T00:04:00;100723.61;;;29.38;42.36
62847;BME280;49477;35.676;139.586;2023-06-10T00:06:30;100735.19;;;29.29;42.62
62847;BME280;49477;35.676;139.586;2023-06-10T00:08:59;100735.63;;;29.10;43.28
62847;BME280;49477;35.676;139.586;2023-06-10T00:11:28;100732.18;;;29.13;43.36
62847;BME280;49477;35.676;139.586;2023-06-10T00:13:57;100725.09;;;29.66;42.51
62847;BME280;49477;35.676;139.586;2023-06-10T00:16:27;100725.95;;;29.56;42.29
62847;BME280;49477;35.676;139.586;2023-06-10T00:18:56;100723.59;;;29.92;42.12
62847;BME280;49477;35.676;139.586;2023-06-10T00:21:25;100726.10;;;29.68;42.07
62847;BME280;49477;35.676;139.586;2023-06-10T00:23:55;100733.36;;;30.01;41.98
62847;BME280;49477;35.676;139.586;2023-06-10T00:26:25;100725.24;;;29.86;41.70
62847;BME280;49477;35.676;139.586;2023-06-10T00:28:54;100718.33;;;29.89;41.56
62847;BME280;49477;35.676;139.586;2023-06-10T00:31:24;100726.35;;;29.92;41.72
62847;BME280;49477;35.676;139.586;2023-06-10T00:33:53;100724.79;;;30.07;41.35
62847;BME280;49477;35.676;139.586;2023-06-10T00:36:22;100726.86;;;29.99;41.55
62847;BME280;49477;35.676;139.586;2023-06-10T00:38:51;100727.10;;;30.06;41.40
62847;BME280;49477;35.676;139.586;2023-06-10T00:41:21;100727.93;;;29.90;41.23
62847;BME280;49477;35.676;139.586;2023-06-10T00:43:50;100730.18;;;30.12;41.41
62847;BME280;49477;35.676;139.586;2023-06-10T00:46:19;100727.72;;;30.32;41.47
62847;BME280;49477;35.676;139.586;2023-06-10T00:48:49;100716.07;;;30.16;41.19
62847;BME280;49477;35.676;139.586;2023-06-10T00:51:19;100711.99;;;30.21;41.08
62847;BME280;49477;35.676;139.586;2023-06-10T00:53:49;100714.59;;;29.98;41.21
62847;BME280;49477;35.676;139.586;2023-06-10T00:56:19;100716.56;;;30.16;41.52
62847;BME280;49477;35.676;139.586;2023-06-10T00:58:48;100721.61;;;29.65;42.25
62847;BME280;49477;35.676;139.586;2023-06-10T01:01:17;100719.32;;;30.03;41.24
62847;BME280;49477;35.676;139.586;2023-06-10T01:03:46;100713.45;;;30.14;41.09
62847;BME280;49477;35.676;139.586;2023-06-10T01:06:26;100710.76;;;30.40;40.98
62847;BME280;49477;35.676;139.586;2023-06-10T01:09:06;100715.53;;;30.48;40.84
62847;BME280;49477;35.676;139.586;2023-06-10T01:11:47;100714.84;;;30.18;40.71
62847;BME280;49477;35.676;139.586;2023-06-10T01:14:18;100713.10;;;30.68;40.60
62847;BME280;49477;35.676;139.586;2023-06-10T01:16:48;100716.56;;;30.17;40.96
62847;BME280;49477;35.676;139.586;2023-06-10T01:19:17;100716.25;;;30.39;40.99
62847;BME280;49477;35.676;139.586;2023-06-10T01:21:47;100720.63;;;30.58;41.01
62847;BME280;49477;35.676;139.586;2023-06-10T01:24:16;100730.34;;;30.63;41.17
62847;BME280;49477;35.676;139.586;2023-06-10T01:26:49;100730.68;;;30.84;40.56
62847;BME280;49477;35.676;139.586;2023-06-10T01:29:22;100715.34;;;30.49;40.36
62847;BME280;49477;35.676;139.586;2023-06-10T01:32:00;100705.45;;;30.99;40.32
62847;BME280;49477;35.676;139.586;2023-06-10T01:34:32;100718.34;;;30.47;40.53
62847;BME280;49477;35.676;139.586;2023-06-10T01:37:02;100718.82;;;30.35;41.06
62847;BME280;49477;35.676;139.586;2023-06-10T01:39:33;100710.20;;;30.35;40.79
62847;BME280;49477;35.676;139.586;2023-06-10T01:42:03;100707.38;;;30.45;40.47
62847;BME280;49477;35.676;139.586;2023-06-10T01:44:34;100716.81;;;30.55;40.26
62847;BME280;49477;35.676;139.586;2023-06-10T01:47:03;100713.18;;;30.80;40.21
62847;BME280;49477;35.676;139.586;2023-06-10T01:49:33;100714.62;;;30.69;40.06
62847;BME280;49477;35.676;139.586;2023-06-10T01:52:03;100725.34;;;30.71;40.05
62847;BME280;49477;35.676;139.586;2023-06-10T01:54:31;100723.94;;;30.69;40.13
62847;BME280;49477;35.676;139.586;2023-06-10T01:57:02;100718.41;;;30.74;39.98
62847;BME280;49477;35.676;139.586;2023-06-10T01:59:31;100715.44;;;30.79;40.03
62847;BME280;49477;35.676;139.586;2023-06-10T02:02:00;100716.43;;;31.08;39.91
62847;BME280;49477;35.676;139.586;2023-06-10T02:04:30;100715.34;;;30.70;39.70
62847;BME280;49477;35.676;139.586;2023-06-10T02:07:00;100706.49;;;31.01;39.65
62847;BME280;49477;35.676;139.586;2023-06-10T02:09:29;100703.87;;;31.04;39.72
62847;BME280;49477;35.676;139.586;2023-06-10T02:11:58;100717.07;;;31.00;39.88
62847;BME280;49477;35.676;139.586;2023-06-10T02:14:27;100725.05;;;30.74;39.83
62847;BME280;49477;35.676;139.586;2023-06-10T02:16:57;100713.33;;;31.09;39.64
62847;BME280;49477;35.676;139.586;2023-06-10T02:19:26;100712.65;;;31.13;39.51
62847;BME280;49477;35.676;139.586;2023-06-10T02:21:55;100720.82;;;31.62;39.59
62847;BME280;49477;35.676;139.586;2023-06-10T02:24:25;100714.74;;;31.22;39.56
62847;BME280;49477;35.676;139.586;2023-06-10T02:26:55;100707.03;;;31.27;39.28
62847;BME280;49477;35.676;139.586;2023-06-10T02:29:29;100703.07;;;31.29;39.37
62847;BME280;49477;35.676;139.586;2023-06-10T02:31:58;100689.31;;;31.06;39.71
62847;BME280;49477;35.676;139.586;2023-06-10T02:34:27;100686.15;;;31.14;39.62
62847;BME280;49477;35.676;139.586;2023-06-10T02:36:57;100686.52;;;31.28;39.45
62847;BME280;49477;35.676;139.586;2023-06-10T02:39:27;100692.39;;;30.94;39.64
62847;BME280;49477;35.676;139.586;2023-06-10T02:41:56;100691.71;;;31.30;39.43
62847;BME280;49477;35.676;139.586;2023-06-10T02:44:25;100688.30;;;31.38;39.24
62847;BME280;49477;35.676;139.586;2023-06-10T02:46:55;100686.39;;;31.44;39.21
62847;BME280;49477;35.676;139.586;2023-06-10T02:49:24;100691.57;;;31.46;39.22
62847;BME280;49477;35.676;139.586;2023-06-10T02:51:53;100692.57;;;31.44;39.32
62847;BME280;49477;35.676;139.586;2023-06-10T02:54:24;100684.80;;;31.59;39.11
62847;BME280;49477;35.676;139.586;2023-06-10T02:56:53;100685.79;;;31.59;39.09
62847;BME280;49477;35.676;139.586;2023-06-10T02:59:22;100689.17;;;31.62;39.05
62847;BME280;49477;35.676;139.586;2023-06-10T03:01:51;100691.21;;;31.67;39.08
62847;BME280;49477;35.676;139.586;2023-06-10T03:04:21;100689.24;;;31.36;39.19
62847;BME280;49477;35.676;139.586;2023-06-10T03:06:50;100678.16;;;31.59;39.19
62847;BME280;49477;35.676;139.586;2023-06-10T03:09:20;100668.66;;;31.31;39.24
62847;BME280;49477;35.676;139.586;2023-06-10T03:11:49;100668.80;;;31.58;39.15
62847;BME280;49477;35.676;139.586;2023-06-10T03:14:18;100684.44;;;31.63;39.01
62847;BME280;49477;35.676;139.586;2023-06-10T03:16:48;100692.49;;;31.58;39.07
62847;BME280;49477;35.676;139.586;2023-06-10T03:19:17;100699.62;;;31.27;39.05
62847;BME280;49477;35.676;139.586;2023-06-10T03:21:57;100707.96;;;31.58;38.96
62847;BME280;49477;35.676;139.586;2023-06-10T03:24:26;100700.07;;;31.43;38.76
62847;BME280;49477;35.676;139.586;2023-06-10T03:26:56;100692.24;;;31.39;38.78
62847;BME280;49477;35.676;139.586;2023-06-10T03:29:25;100699.66;;;31.71;38.69
62847;BME280;49477;35.676;139.586;2023-06-10T03:31:54;100687.01;;;31.43;38.73
62847;BME280;49477;35.676;139.586;2023-06-10T03:34:24;100675.92;;;31.71;38.52
62847;BME280;49477;35.676;139.586;2023-06-10T03:36:53;100672.19;;;31.44;38.61
62847;BME280;49477;35.676;139.586;2023-06-10T03:39:23;100670.85;;;31.72;38.50
62847;BME280;49477;35.676;139.586;2023-06-10T03:41:52;100670.03;;;31.43;38.52
62847;BME280;49477;35.676;139.586;2023-06-10T03:44:22;100663.43;;;31.70;38.55
62847;BME280;49477;35.676;139.586;2023-06-10T03:46:51;100665.25;;;31.46;38.59
62847;BME280;49477;35.676;139.586;2023-06-10T03:49:20;100672.18;;;31.78;38.53
62847;BME280;49477;35.676;139.586;2023-06-10T03:51:49;100672.73;;;31.49;38.56
62847;BME280;49477;35.676;139.586;2023-06-10T03:54:19;100674.04;;;31.73;38.58
62847;BME280;49477;35.676;139.586;2023-06-10T03:56:48;100676.43;;;31.53;38.47
62847;BME280;49477;35.676;139.586;2023-06-10T03:59:18;100666.70;;;31.50;38.56
62847;BME280;49477;35.676;139.586;2023-06-10T04:01:47;100662.96;;;31.73;38.61
62847;BME280;49477;35.676;139.586;2023-06-10T04:04:17;100666.20;;;31.76;38.55
62847;BME280;49477;35.676;139.586;2023-06-10T04:06:46;100669.52;;;31.87;38.37
62847;BME280;49477;35.676;139.586;2023-06-10T04:09:16;100673.02;;;31.64;38.31
62847;BME280;49477;35.676;139.586;2023-06-10T04:11:45;100667.23;;;31.62;38.32
62847;BME280;49477;35.676;139.586;2023-06-10T04:14:14;100662.18;;;31.81;38.42
62847;BME280;49477;35.676;139.586;2023-06-10T04:16:43;100673.67;;;31.32;38.63
62847;BME280;49477;35.676;139.586;2023-06-10T04:19:13;100682.99;;;31.58;38.37
62847;BME280;49477;35.676;139.586;2023-06-10T04:21:42;100677.04;;;31.36;38.45
62847;BME280;49477;35.676;139.586;2023-06-10T04:24:12;100672.06;;;31.64;38.43
62847;BME280;49477;35.676;139.586;2023-06-10T04:26:41;100661.87;;;31.48;38.64
62847;BME280;49477;35.676;139.586;2023-06-10T04:29:11;100652.70;;;31.53;38.59
62847;BME280;49477;35.676;139.586;2023-06-10T04:31:40;100651.37;;;31.86;38.47
62847;BME280;49477;35.676;139.586;2023-06-10T04:34:09;100655.80;;;31.60;38.48
62847;BME280;49477;35.676;139.586;2023-06-10T04:36:39;100660.09;;;31.46;38.71
62847;BME280;49477;35.676;139.586;2023-06-10T04:39:08;100671.25;;;31.75;38.70
62847;BME280;49477;35.676;139.586;2023-06-10T04:41:38;100682.01;;;31.73;38.80
62847;BME280;49477;35.676;139.586;2023-06-10T04:44:06;100690.70;;;31.60;38.73
62847;BME280;49477;35.676;139.586;2023-06-10T04:46:36;100696.16;;;31.40;39.04
62847;BME280;49477;35.676;139.586;2023-06-10T04:49:05;100696.89;;;31.49;39.34
62847;BME280;49477;35.676;139.586;2023-06-10T04:51:34;100689.87;;;31.18;39.71
62847;BME280;49477;35.676;139.586;2023-06-10T04:54:03;100691.50;;;31.37;39.27
62847;BME280;49477;35.676;139.586;2023-06-10T04:56:33;100695.09;;;31.11;39.58
62847;BME280;49477;35.676;139.586;2023-06-10T04:59:02;100692.15;;;31.40;39.09
62847;BME280;49477;35.676;139.586;2023-06-10T05:01:31;100685.60;;;31.52;38.91
62847;BME280;49477;35.676;139.586;2023-06-10T05:04:00;100678.71;;;31.50;38.85
62847;BME280;49477;35.676;139.586;2023-06-10T05:06:29;100680.39;;;31.08;38.87
62847;BME280;49477;35.676;139.586;2023-06-10T05:08:59;100680.69;;;31.67;38.61
62847;BME280;49477;35.676;139.586;2023-06-10T05:11:28;100687.30;;;31.13;38.47
62847;BME280;49477;35.676;139.586;2023-06-10T05:13:57;100699.83;;;31.66;38.61
62847;BME280;49477;35.676;139.586;2023-06-10T05:16:27;100707.11;;;31.13;38.61
62847;BME280;49477;35.676;139.586;2023-06-10T05:18:56;100708.66;;;31.51;38.68
62847;BME280;49477;35.676;139.586;2023-06-10T05:21:26;100707.05;;;31.27;38.59
62847;BME280;49477;35.676;139.586;2023-06-10T05:23:54;100712.87;;;31.29;38.81
62847;BME280;49477;35.676;139.586;2023-06-10T05:26:24;100713.92;;;31.70;38.63
62847;BME280;49477;35.676;139.586;2023-06-10T05:28:53;100713.27;;;31.23;38.97
62847;BME280;49477;35.676;139.586;2023-06-10T05:31:23;100714.57;;;31.30;38.82
62847;BME280;49477;35.676;139.586;2023-06-10T05:33:52;100724.46;;;31.33;38.99
62847;BME280;49477;35.676;139.586;2023-06-10T05:36:22;100727.43;;;31.15;38.75
62847;BME280;49477;35.676;139.586;2023-06-10T05:38:50;100730.10;;;31.27;38.86
62847;BME280;49477;35.676;139.586;2023-06-10T05:41:20;100734.44;;;31.67;38.74
62847;BME280;49477;35.676;139.586;2023-06-10T05:43:50;100739.33;;;31.30;38.88
62847;BME280;49477;35.676;139.586;2023-06-10T05:46:19;100740.46;;;31.27;39.32
62847;BME280;49477;35.676;139.586;2023-06-10T05:48:49;100742.43;;;31.24;39.04
62847;BME280;49477;35.676;139.586;2023-06-10T05:51:18;100737.13;;;31.44;39.25
62847;BME280;49477;35.676;139.586;2023-06-10T05:53:47;100737.07;;;31.56;38.67
62847;BME280;49477;35.676;139.586;2023-06-10T05:56:17;100743.23;;;31.57;39.02
62847;BME280;49477;35.676;139.586;2023-06-10T05:58:46;100738.39;;;31.25;38.72
62847;BME280;49477;35.676;139.586;2023-06-10T06:01:16;100732.04;;;31.58;38.68
62847;BME280;49477;35.676;139.586;2023-06-10T06:03:45;100723.19;;;31.51;38.79
62847;BME280;49477;35.676;139.586;2023-06-10T06:06:15;100717.71;;;31.23;38.87
62847;BME280;49477;35.676;139.586;2023-06-10T06:08:44;100712.07;;;31.35;39.01
62847;BME280;49477;35.676;139.586;2023-06-10T06:11:13;100713.51;;;31.82;38.76
62847;BME280;49477;35.676;139.586;2023-06-10T06:13:42;100713.99;;;31.33;38.80
62847;BME280;49477;35.676;139.586;2023-06-10T06:16:12;100711.62;;;31.62;38.75
62847;BME280;49477;35.676;139.586;2023-06-10T06:18:41;100711.10;;;31.26;39.27
62847;BME280;49477;35.676;139.586;2023-06-10T06:21:10;100708.64;;;31.45;39.05
62847;BME280;49477;35.676;139.586;2023-06-10T06:23:39;100709.45;;;31.36;39.21
62847;BME280;49477;35.676;139.586;2023-06-10T06:26:08;100703.93;;;31.47;38.76
62847;BME280;49477;35.676;139.586;2023-06-10T06:28:38;100708.49;;;31.53;39.03
62847;BME280;49477;35.676;139.586;2023-06-10T06:31:08;100713.81;;;31.34;39.14
62847;BME280;49477;35.676;139.586;2023-06-10T06:33:37;100713.02;;;31.72;38.66
62847;BME280;49477;35.676;139.586;2023-06-10T06:36:06;100711.70;;;31.55;38.84
62847;BME280;49477;35.676;139.586;2023-06-10T06:38:36;100703.72;;;31.45;39.02
62847;BME280;49477;35.676;139.586;2023-06-10T06:41:04;100695.44;;;31.46;39.22
62847;BME280;49477;35.676;139.586;2023-06-10T06:43:34;100687.03;;;31.43;38.75
62847;BME280;49477;35.676;139.586;2023-06-10T06:46:03;100681.91;;;31.78;38.57
62847;BME280;49477;35.676;139.586;2023-06-10T06:48:32;100674.08;;;31.19;39.21
62847;BME280;49477;35.676;139.586;2023-06-10T06:51:01;100670.67;;;31.64;38.80
62847;BME280;49477;35.676;139.586;2023-06-10T06:53:31;100668.96;;;31.67;38.79
62847;BME280;49477;35.676;139.586;2023-06-10T06:55:59;100678.10;;;31.92;38.84
62847;BME280;49477;35.676;139.586;2023-06-10T06:58:28;100674.76;;;31.18;38.98
62847;BME280;49477;35.676;139.586;2023-06-10T07:00:57;100671.02;;;31.76;38.55
62847;BME280;49477;35.676;139.586;2023-06-10T07:03:27;100665.59;;;31.54;38.58
62847;BME280;49477;35.676;139.586;2023-06-10T07:05:56;100667.92;;;31.73;38.61
62847;BME280;49477;35.676;139.586;2023-06-10T07:08:26;100666.17;;;31.94;38.64
62847;BME280;49477;35.676;139.586;2023-06-10T07:10:55;100666.02;;;31.18;38.81
62847;BME280;49477;35.676;139.586;2023-06-10T07:13:24;100669.22;;;31.18;39.01
62847;BME280;49477;35.676;139.586;2023-06-10T07:15:53;100665.24;;;31.39;38.81
62847;BME280;49477;35.676;139.586;2023-06-10T07:18:23;100664.13;;;31.75;38.49
62847;BME280;49477;35.676;139.586;2023-06-10T07:20:53;100670.49;;;31.89;38.63
62847;BME280;49477;35.676;139.586;2023-06-10T07:23:22;100672.16;;;31.67;38.62
62847;BME280;49477;35.676;139.586;2023-06-10T07:25:51;100673.75;;;31.71;38.67
62847;BME280;49477;35.676;139.586;2023-06-10T07:28:20;100672.90;;;31.73;38.64
62847;BME280;49477;35.676;139.586;2023-06-10T07:30:49;100672.68;;;31.96;38.62
62847;BME280;49477;35.676;139.586;2023-06-10T07:33:19;100675.51;;;31.81;38.97
62847;BME280;49477;35.676;139.586;2023-06-10T07:35:48;100673.69;;;31.77;38.65
62847;BME280;49477;35.676;139.586;2023-06-10T07:38:18;100672.98;;;31.67;38.67
62847;BME280;49477;35.676;139.586;2023-06-10T07:40:48;100677.50;;;31.65;38.81
62847;BME280;49477;35.676;139.586;2023-06-10T07:43:18;100673.73;;;31.70;38.64
62847;BME280;49477;35.676;139.586;2023-06-10T07:45:48;100676.48;;;31.63;38.83
62847;BME280;49477;35.676;139.586;2023-06-10T07:48:17;100673.72;;;31.54;38.85
62847;BME280;49477;35.676;139.586;2023-06-10T07:50:46;100670.62;;;31.56;38.88
62847;BME280;49477;35.676;139.586;2023-06-10T07:53:15;100668.67;;;31.58;38.82
62847;BME280;49477;35.676;139.586;2023-06-10T07:55:44;100666.48;;;31.99;38.62
62847;BME280;49477;35.676;139.586;2023-06-10T07:58:13;100660.07;;;31.57;38.87
62847;BME280;49477;35.676;139.586;2023-06-10T08:00:42;100660.55;;;31.66;38.84
62847;BME280;49477;35.676;139.586;2023-06-10T08:03:12;100658.73;;;31.90;38.92
62847;BME280;49477;35.676;139.586;2023-06-10T08:05:46;100654.59;;;31.74;38.72
62847;BME280;49477;35.676;139.586;2023-06-10T08:08:17;100661.54;;;31.76;39.11
62847;BME280;49477;35.676;139.586;2023-06-10T08:10:46;100666.73;;;31.11;39.40
62847;BME280;49477;35.676;139.586;2023-06-10T08:13:16;100673.09;;;31.73;39.34
62847;BME280;49477;35.676;139.586;2023-06-10T08:15:47;100683.41;;;31.37;39.58
62847;BME280;49477;35.676;139.586;2023-06-10T08:18:16;100685.88;;;31.26;39.50
62847;BME280;49477;35.676;139.586;2023-06-10T08:20:45;100691.36;;;31.44;39.51
62847;BME280;49477;35.676;139.586;2023-06-10T08:23:15;100696.10;;;31.30;39.27
62847;BME280;49477;35.676;139.586;2023-06-10T08:25:45;100696.18;;;31.34;39.47
62847;BME280;49477;35.676;139.586;2023-06-10T08:28:15;100694.61;;;31.49;39.56
62847;BME280;49477;35.676;139.586;2023-06-10T08:30:44;100700.15;;;31.13;39.70
62847;BME280;49477;35.676;139.586;2023-06-10T08:33:14;100699.37;;;31.37;39.76
62847;BME280;49477;35.676;139.586;2023-06-10T08:35:44;100710.80;;;31.11;39.84
62847;BME280;49477;35.676;139.586;2023-06-10T08:38:12;100717.59;;;30.62;40.41
62847;BME280;49477;35.676;139.586;2023-06-10T08:40:42;100723.23;;;31.01;40.03
62847;BME280;49477;35.676;139.586;2023-06-10T08:43:21;100724.59;;;30.98;39.98
62847;BME280;49477;35.676;139.586;2023-06-10T08:45:59;100729.15;;;30.80;40.27
62847;BME280;49477;35.676;139.586;2023-06-10T08:48:30;100737.00;;;30.65;40.30
62847;BME280;49477;35.676;139.586;2023-06-10T08:50:59;100748.97;;;30.72;40.26
62847;BME280;49477;35.676;139.586;2023-06-10T08:53:31;100757.14;;;30.34;40.55
62847;BME280;49477;35.676;139.586;2023-06-10T08:56:05;100762.79;;;30.53;40.43
62847;BME280;49477;35.676;139.586;2023-06-10T08:58:34;100769.00;;;30.40;40.60
62847;BME280;49477;35.676;139.586;2023-06-10T09:01:04;100773.98;;;30.33;40.91
62847;BME280;49477;35.676;139.586;2023-06-10T09:03:33;100780.82;;;30.14;40.94
62847;BME280;49477;35.676;139.586;2023-06-10T09:06:10;100786.74;;;30.18;41.13
62847;BME280;49477;35.676;139.586;2023-06-10T09:08:40;100787.42;;;30.15;41.00
62847;BME280;49477;35.676;139.586;2023-06-10T09:11:15;100789.36;;;30.39;41.18
62847;BME280;49477;35.676;139.586;2023-06-10T09:13:49;100784.19;;;30.04;41.08
62847;BME280;49477;35.676;139.586;2023-06-10T09:16:19;100778.23;;;29.94;41.52
62847;BME280;49477;35.676;139.586;2023-06-10T09:18:49;100776.44;;;30.07;41.38
62847;BME280;49477;35.676;139.586;2023-06-10T09:21:18;100776.39;;;30.08;41.56
62847;BME280;49477;35.676;139.586;2023-06-10T09:23:48;100774.85;;;30.17;41.39
62847;BME280;49477;35.676;139.586;2023-06-10T09:26:17;100776.76;;;30.23;41.42
62847;BME280;49477;35.676;139.586;2023-06-10T09:28:49;100778.18;;;29.95;41.41
62847;BME280;49477;35.676;139.586;2023-06-10T09:31:18;100779.39;;;30.06;41.49
62847;BME280;49477;35.676;139.586;2023-06-10T09:33:47;100780.15;;;29.94;41.77
62847;BME280;49477;35.676;139.586;2023-06-10T09:36:23;100778.32;;;29.85;41.89
62847;BME280;49477;35.676;139.586;2023-06-10T09:38:56;100784.79;;;29.61;42.16
62847;BME280;49477;35.676;139.586;2023-06-10T09:41:33;100788.58;;;29.41;42.10
62847;BME280;49477;35.676;139.586;2023-06-10T09:44:13;100793.71;;;29.80;41.89
62847;BME280;49477;35.676;139.586;2023-06-10T09:46:44;100796.33;;;29.62;42.18
62847;BME280;49477;35.676;139.586;2023-06-10T09:49:14;100802.60;;;29.54;42.36
62847;BME280;49477;35.676;139.586;2023-06-10T09:51:51;100801.41;;;29.57;42.28
62847;BME280;49477;35.676;139.586;2023-06-10T09:54:21;100798.47;;;29.81;41.94
62847;BME280;49477;35.676;139.586;2023-06-10T09:56:52;100805.88;;;29.55;42.31
62847;BME280;49477;35.676;139.586;2023-06-10T09:59:30;100804.59;;;29.76;42.37
62847;BME280;49477;35.676;139.586;2023-06-10T10:01:59;100805.16;;;29.62;42.76
62847;BME280;49477;35.676;139.586;2023-06-10T10:04:28;100806.61;;;29.30;42.81
62847;BME280;49477;35.676;139.586;2023-06-10T10:06:58;100805.95;;;29.12;43.07
62847;BME280;49477;35.676;139.586;2023-06-10T10:09:27;100800.02;;;29.21;42.97
62847;BME280;49477;35.676;139.586;2023-06-10T10:11:58;100802.92;;;29.75;42.47
62847;BME280;49477;35.676;139.586;2023-06-10T10:14:29;100800.22;;;29.13;43.12
62847;BME280;49477;35.676;139.586;2023-06-10T10:17:02;100800.57;;;29.60;42.84
62847;BME280;49477;35.676;139.586;2023-06-10T10:19:34;100799.22;;;29.36;42.84
62847;BME280;49477;35.676;139.586;2023-06-10T10:22:08;100796.17;;;29.47;43.11
62847;BME280;49477;35.676;139.586;2023-06-10T10:24:43;100795.77;;;29.13;43.27
62847;BME280;49477;35.676;139.586;2023-06-10T10:27:18;100792.07;;;29.23;43.10
62847;BME280;49477;35.676;139.586;2023-06-10T10:29:51;100791.70;;;29.18;43.20
62847;BME280;49477;35.676;139.586;2023-06-10T10:32:25;100795.08;;;28.93;43.59
62847;BME280;49477;35.676;139.586;2023-06-10T10:35:01;100794.62;;;29.28;43.46
62847;BME280;49477;35.676;139.586;2023-06-10T10:37:32;100794.86;;;29.09;43.28
62847;BME280;49477;35.676;139.586;2023-06-10T10:40:02;100791.95;;;28.83;44.18
62847;BME280;49477;35.676;139.586;2023-06-10T10:42:32;100791.28;;;28.67;43.98
62847;BME280;49477;35.676;139.586;2023-06-10T10:45:03;100789.54;;;29.34;43.24
62847;BME280;49477;35.676;139.586;2023-06-10T10:47:34;100788.07;;;28.93;43.67
62847;BME280;49477;35.676;139.586;2023-06-10T10:50:14;100789.80;;;29.27;43.97
62847;BME280;49477;35.676;139.586;2023-06-10T10:53:01;100796.43;;;29.37;43.72
62847;BME280;49477;35.676;139.586;2023-06-10T10:55:31;100796.50;;;28.90;43.66
62847;BME280;49477;35.676;139.586;2023-06-10T10:58:04;100804.93;;;29.37;43.61
62847;BME280;49477;35.676;139.586;2023-06-10T11:00:34;100813.53;;;28.95;44.14
62847;BME280;49477;35.676;139.586;2023-06-10T11:03:07;100816.98;;;28.98;44.03
62847;BME280;49477;35.676;139.586;2023-06-10T11:05:40;100824.29;;;28.72;44.11
62847;BME280;49477;35.676;139.586;2023-06-10T11:08:10;100827.82;;;29.13;44.23
62847;BME280;49477;35.676;139.586;2023-06-10T11:10:40;100829.11;;;29.08;43.79
62847;BME280;49477;35.676;139.586;2023-06-10T11:13:12;100831.95;;;29.31;43.89
62847;BME280;49477;35.676;139.586;2023-06-10T11:15:46;100827.28;;;29.07;44.51
62847;BME280;49477;35.676;139.586;2023-06-10T11:18:20;100830.60;;;29.03;44.48
62847;BME280;49477;35.676;139.586;2023-06-10T11:20:54;100833.73;;;29.01;44.55
62847;BME280;49477;35.676;139.586;2023-06-10T11:23:41;100839.76;;;28.79;44.56
62847;BME280;49477;35.676;139.586;2023-06-10T11:26:20;100845.62;;;28.61;45.03
62847;BME280;49477;35.676;139.586;2023-06-10T11:29:22;100843.90;;;28.82;44.96
62847;BME280;49477;35.676;139.586;2023-06-10T11:31:52;100841.25;;;28.78;45.04
62847;BME280;49477;35.676;139.586;2023-06-10T11:34:25;100843.91;;;28.68;45.24
62847;BME280;49477;35.676;139.586;2023-06-10T11:36:55;100840.21;;;28.50;45.56
62847;BME280;49477;35.676;139.586;2023-06-10T11:39:25;100834.66;;;28.72;45.02
62847;BME280;49477;35.676;139.586;2023-06-10T11:41:54;100827.19;;;28.52;45.56
62847;BME280;49477;35.676;139.586;2023-06-10T11:44:29;100825.54;;;28.46;45.68
62847;BME280;49477;35.676;139.586;2023-06-10T11:46:58;100826.00;;;28.54;45.54
62847;BME280;49477;35.676;139.586;2023-06-10T11:49:27;100827.21;;;28.19;45.75
62847;BME280;49477;35.676;139.586;2023-06-10T11:51:56;100829.35;;;28.08;46.24
62847;BME280;49477;35.676;139.586;2023-06-10T11:54:26;100834.19;;;28.40;45.78
62847;BME280;49477;35.676;139.586;2023-06-10T11:56:59;100843.49;;;28.10;45.92
62847;BME280;49477;35.676;139.586;2023-06-10T11:59:29;100847.52;;;28.47;45.56
62847;BME280;49477;35.676;139.586;2023-06-10T12:01:58;100848.01;;;28.44;45.69
62847;BME280;49477;35.676;139.586;2023-06-10T12:04:28;100839.25;;;28.56;44.89
62847;BME280;49477;35.676;139.586;2023-06-10T12:06:57;100834.22;;;28.67;44.68
62847;BME280;49477;35.676;139.586;2023-06-10T12:09:28;100829.84;;;28.62;44.64
62847;BME280;49477;35.676;139.586;2023-06-10T12:11:59;100833.73;;;28.88;44.57
62847;BME280;49477;35.676;139.586;2023-06-10T12:15:01;100833.03;;;28.18;45.11
62847;BME280;49477;35.676;139.586;2023-06-10T12:17:38;100837.87;;;28.14;45.25
62847;BME280;49477;35.676;139.586;2023-06-10T12:20:24;100847.50;;;28.83;44.79
62847;BME280;49477;35.676;139.586;2023-06-10T12:22:54;100852.18;;;28.78;44.82
62847;BME280;49477;35.676;139.586;2023-06-10T12:25:27;100851.98;;;28.56;45.47
62847;BME280;49477;35.676;139.586;2023-06-10T12:27:57;100855.57;;;28.40;45.75
62847;BME280;49477;35.676;139.586;2023-06-10T12:30:27;100859.64;;;28.16;46.28
62847;BME280;49477;35.676;139.586;2023-06-10T12:32:57;100861.62;;;27.99;46.71
62847;BME280;49477;35.676;139.586;2023-06-10T12:35:27;100866.30;;;28.12;46.33
62847;BME280;49477;35.676;139.586;2023-06-10T12:37:59;100870.92;;;28.11;46.32
62847;BME280;49477;35.676;139.586;2023-06-10T12:40:29;100871.27;;;28.23;46.11
62847;BME280;49477;35.676;139.586;2023-06-10T12:42:59;100871.64;;;28.45;45.63
62847;BME280;49477;35.676;139.586;2023-06-10T12:45:30;100865.35;;;27.75;46.39
62847;BME280;49477;35.676;139.586;2023-06-10T12:48:09;100864.22;;;28.23;46.31